Time;durP1;ratioP1;P1;durP2;ratioP2;P2;SDS_P1;SDS_P2;PMS_P1;PMS_P2;Temp;Humidity;BMP_temperature;BMP_pressure;BME280_temperature;BME280_humidity;BME280_pressure;Samples;Min_cycle;Max_cycle;Signal;HPM_P1;HPM_P2
2021/01/05 00:01:30;;;;;;;87.55;32.38;;;179.90;2252.80;;;;;;5074327;28;20526;-56
2021/01/05 00:03:55;;;;;;;91.78;35.22;;;179.90;2252.80;;;;;;5074072;28;20382;-56
2021/01/05 00:06:21;;;;;;;85.32;33.22;;;179.90;2252.80;;;;;;5074276;28;20382;-57
2021/01/05 00:08:47;;;;;;;88.72;33.28;;;179.90;2252.80;;;;;;5074255;28;20028;-56
2021/01/05 00:11:13;;;;;;;94.65;37.00;;;179.80;2252.80;;;;;;5074533;28;20024;-55
2021/01/05 00:13:38;;;;;;;89.88;35.38;;;179.80;2252.80;;;;;;5073819;28;20036;-56
2021/01/05 00:16:04;;;;;;;88.97;35.15;;;179.70;2252.80;;;;;;5074187;28;20054;-56
2021/01/05 00:18:30;;;;;;;89.30;35.05;;;179.60;2252.80;;;;;;5074075;28;20100;-56
2021/01/05 00:20:56;;;;;;;80.05;32.75;;;179.60;2252.80;;;;;;5073482;28;20601;-56
2021/01/05 00:23:22;;;;;;;94.10;34.55;;;179.40;2252.80;;;;;;5073847;28;20025;-56
2021/01/05 00:25:47;;;;;;;95.30;34.83;;;179.30;2252.80;;;;;;5074529;28;20021;-56
2021/01/05 00:28:13;;;;;;;88.68;34.72;;;179.30;2252.80;;;;;;5073967;28;20025;-56
2021/01/05 00:30:39;;;;;;;100.93;35.45;;;179.30;2252.80;;;;;;5073957;28;20040;-56
2021/01/05 00:33:06;;;;;;;93.07;34.38;;;179.20;2252.80;;;;;;5073899;28;20485;-57
2021/01/05 00:35:35;;;;;;;92.80;33.22;;;179.30;2252.80;;;;;;5073923;28;20063;-55
2021/01/05 00:38:04;;;;;;;112.43;34.85;;;179.20;2252.80;;;;;;5073057;28;20059;-56
2021/01/05 00:40:30;;;;;;;122.32;36.45;;;154.40;2252.80;;;;;;5073796;28;20044;-56
2021/01/05 00:42:56;;;;;;;99.47;32.08;;;154.40;2252.80;;;;;;5074000;28;20103;-56
2021/01/05 00:45:31;;;;;;;127.45;39.38;;;154.40;2252.80;;;;;;5073306;28;20043;-57
2021/01/05 00:47:58;;;;;;;121.57;33.65;;;154.30;2252.80;;;;;;5073316;28;20048;-56
2021/01/05 00:50:24;;;;;;;112.47;35.53;;;154.30;2252.80;;;;;;5073923;28;20067;-56
2021/01/05 00:52:50;;;;;;;104.28;31.77;;;154.30;2252.80;;;;;;5073516;28;20434;-56
2021/01/05 00:55:17;;;;;;;125.28;34.97;;;154.30;2252.80;;;;;;5073721;28;20028;-56
2021/01/05 00:57:43;;;;;;;104.25;35.53;;;154.40;2252.80;;;;;;5073413;28;20094;-59
2021/01/05 01:00:13;;;;;;;92.82;30.23;;;154.30;2252.80;;;;;;5073789;28;20041;-56
2021/01/05 01:02:39;;;;;;;96.78;32.97;;;154.30;2252.80;;;;;;5073713;28;20029;-58
2021/01/05 01:05:05;;;;;;;91.78;30.17;;;154.30;2252.80;;;;;;5073664;28;20021;-57
2021/01/05 01:07:31;;;;;;;93.65;30.98;;;154.30;2252.80;;;;;;5073772;28;20466;-60
2021/01/05 01:09:57;;;;;;;92.53;32.22;;;154.30;2252.80;;;;;;5073507;28;20025;-60
2021/01/05 01:12:24;;;;;;;89.45;30.15;;;154.40;2252.80;;;;;;5073725;28;20032;-57
2021/01/05 01:14:52;;;;;;;87.72;31.70;;;154.40;2252.80;;;;;;5073158;28;20055;-59
2021/01/05 01:17:19;;;;;;;84.28;29.90;;;154.40;2252.80;;;;;;5073298;28;20143;-59
2021/01/05 01:19:45;;;;;;;100.97;33.85;;;154.40;2252.80;;;;;;5073150;28;20031;-59
2021/01/05 01:22:10;;;;;;;93.30;32.67;;;154.30;2252.80;;;;;;5073337;28;20028;-59
2021/01/05 01:24:36;;;;;;;87.15;30.73;;;154.20;2252.80;;;;;;5073091;28;20074;-60
2021/01/05 01:27:03;;;;;;;87.00;30.77;;;154.20;2252.80;;;;;;5073398;28;20119;-59
2021/01/05 01:29:29;;;;;;;90.18;30.05;;;154.40;2252.80;;;;;;5073385;28;20028;-58
2021/01/05 01:31:56;;;;;;;92.20;30.85;;;154.10;2252.80;;;;;;5073514;28;20070;-60
2021/01/05 01:34:24;;;;;;;86.85;30.00;;;154.20;2252.80;;;;;;5073396;28;20052;-59
2021/01/05 01:36:59;;;;;;;93.68;27.92;;;154.10;2252.80;;;;;;5073449;28;20027;-58
2021/01/05 01:39:25;;;;;;;86.25;28.65;;;154.10;2252.80;;;;;;5073270;28;20103;-59
2021/01/05 01:41:52;;;;;;;94.38;30.10;;;154.00;2252.80;;;;;;5073122;28;20032;-59
2021/01/05 01:44:21;;;;;;;96.53;29.33;;;154.00;2252.80;;;;;;5072987;28;20032;-59
2021/01/05 01:46:48;;;;;;;94.95;29.23;;;153.90;2252.80;;;;;;5073383;28;20035;-58
2021/01/05 01:49:14;;;;;;;101.97;30.27;;;153.90;2252.80;;;;;;5073740;28;20024;-59
2021/01/05 01:51:41;;;;;;;101.53;28.92;;;153.90;2252.80;;;;;;5076579;28;20416;-59
2021/01/05 01:54:10;;;;;;;99.70;28.55;;;153.90;2252.80;;;;;;5076475;28;20040;-58
2021/01/05 01:57:00;;;;;;;109.72;28.48;;;153.80;2252.80;;;;;;5076678;28;20098;-59
2021/01/05 01:59:29;;;;;;;101.72;28.67;;;153.80;2252.80;;;;;;5076657;28;20382;-59
2021/01/05 02:02:00;;;;;;;99.50;26.95;;;153.80;2252.80;;;;;;5076715;28;20017;-59
2021/01/05 02:05:04;;;;;;;106.72;31.95;;;153.80;2252.80;;;;;;5076679;28;20107;-59
2021/01/05 02:07:48;;;;;;;102.65;29.33;;;153.70;2252.80;;;;;;5014533;28;20125;-58
2021/01/05 02:10:39;;;;;;;99.15;29.95;;;153.80;2252.80;;;;;;5014624;28;20030;-58
2021/01/05 02:13:38;;;;;;;82.93;25.38;;;153.80;2252.80;;;;;;5014422;28;20041;-58
2021/01/05 02:16:10;;;;;;;85.43;26.70;;;153.70;2252.80;;;;;;5014458;28;20038;-59
2021/01/05 02:18:39;;;;;;;80.68;26.80;;;153.70;2252.80;;;;;;5014725;28;20034;-57
2021/01/05 02:21:16;;;;;;;83.35;27.05;;;153.70;2252.80;;;;;;5014511;28;20034;-59
2021/01/05 02:23:53;;;;;;;74.13;25.05;;;153.80;2252.80;;;;;;5014374;28;20022;-59
2021/01/05 02:26:31;;;;;;;72.55;25.52;;;153.80;2252.80;;;;;;5014289;28;20038;-59
2021/01/05 02:29:06;;;;;;;71.28;22.48;;;153.80;2252.80;;;;;;5014245;28;20551;-58
2021/01/05 02:31:41;;;;;;;69.30;21.70;;;153.70;2252.80;;;;;;5014240;28;20065;-59
2021/01/05 02:34:33;;;;;;;75.82;23.42;;;153.70;2252.80;;;;;;5014222;28;20423;-58
2021/01/05 02:37:31;;;;;;;56.75;20.20;;;153.70;2252.80;;;;;;5014122;28;20081;-59
2021/01/05 02:40:12;;;;;;;52.13;20.40;;;153.70;2252.80;;;;;;5075864;28;20374;-59
2021/01/05 02:43:02;;;;;;;56.88;19.70;;;153.80;2252.80;;;;;;5075915;28;20033;-57
2021/01/05 02:45:40;;;;;;;49.95;17.52;;;153.70;2252.80;;;;;;5075928;28;20041;-59
2021/01/05 02:48:05;;;;;;;47.15;17.00;;;153.60;2252.80;;;;;;5075729;28;20024;-59
2021/01/05 02:51:08;;;;;;;47.78;17.20;;;153.60;2252.80;;;;;;5076511;28;20422;-58
2021/01/05 02:53:52;;;;;;;52.58;17.92;;;128.90;2252.80;;;;;;5075748;28;20104;-58
2021/01/05 02:56:36;;;;;;;59.42;19.48;;;128.80;2252.80;;;;;;5075628;28;20074;-60
2021/01/05 02:59:07;;;;;;;65.00;20.30;;;128.80;2252.80;;;;;;5075629;28;20467;-58
2021/01/05 03:01:55;;;;;;;66.60;20.45;;;128.80;2252.80;;;;;;5074899;28;20085;-58
2021/01/05 03:04:20;;;;;;;75.97;21.27;;;128.80;2252.80;;;;;;5075526;28;20143;-58
2021/01/05 03:06:52;;;;;;;78.95;24.33;;;128.70;2252.80;;;;;;5075421;28;20473;-55
2021/01/05 03:09:27;;;;;;;84.40;23.65;;;128.70;2252.80;;;;;;5075237;28;20055;-59
2021/01/05 03:12:20;;;;;;;92.75;23.33;;;128.60;2252.80;;;;;;5075450;28;20032;-59
2021/01/05 03:14:58;;;;;;;94.38;23.98;;;128.50;2252.80;;;;;;5075107;28;20501;-57
2021/01/05 03:17:29;;;;;;;80.70;21.33;;;128.50;2252.80;;;;;;5075088;28;20025;-57
2021/01/05 03:20:04;;;;;;;95.43;24.95;;;128.40;2252.80;;;;;;5075080;28;20033;-59
2021/01/05 03:22:34;;;;;;;101.90;25.23;;;128.40;2252.80;;;;;;5075305;28;20096;-59
2021/01/05 03:25:03;;;;;;;99.35;24.30;;;128.40;2252.80;;;;;;5074379;28;20028;-58
2021/01/05 03:27:30;;;;;;;79.22;22.27;;;128.40;2252.80;;;;;;5075480;28;20355;-59
2021/01/05 03:30:22;;;;;;;77.25;22.00;;;128.40;2252.80;;;;;;5074893;28;20073;-59
2021/01/05 03:32:48;;;;;;;76.43;21.42;;;128.40;2252.80;;;;;;5074810;28;20063;-59
2021/01/05 03:35:14;;;;;;;84.15;24.25;;;128.30;2252.80;;;;;;5075150;28;20481;-59
2021/01/05 03:37:39;;;;;;;96.28;23.83;;;128.30;2252.80;;;;;;5074911;28;20032;-59
2021/01/05 03:40:09;;;;;;;87.93;20.60;;;128.20;2252.80;;;;;;5074612;28;20123;-59
2021/01/05 03:42:35;;;;;;;89.32;24.35;;;128.20;2252.80;;;;;;5074687;28;20497;-59
2021/01/05 03:45:03;;;;;;;90.75;24.13;;;128.30;2252.80;;;;;;5074311;28;20036;-58
2021/01/05 03:47:28;;;;;;;94.75;24.83;;;128.30;2252.80;;;;;;5074476;28;20036;-59
2021/01/05 03:49:54;;;;;;;96.65;25.60;;;128.40;2252.80;;;;;;5074284;28;20082;-59
2021/01/05 03:52:23;;;;;;;91.15;24.77;;;128.40;2252.80;;;;;;5074448;28;20111;-59
2021/01/05 03:54:52;;;;;;;80.15;22.10;;;128.40;2252.80;;;;;;5057236;28;20038;-59
2021/01/05 03:57:18;;;;;;;92.80;24.63;;;128.30;2252.80;;;;;;5074543;28;20206;-59
2021/01/05 03:59:44;;;;;;;102.95;25.42;;;128.40;2252.80;;;;;;5074417;28;20124;-58
2021/01/05 04:02:10;;;;;;;93.20;25.02;;;128.50;2252.80;;;;;;5074109;28;20107;-57
2021/01/05 04:04:36;;;;;;;131.48;26.67;;;128.50;2252.80;;;;;;5074054;28;20021;-58
2021/01/05 04:07:02;;;;;;;105.38;25.05;;;128.50;2252.80;;;;;;5074394;28;20168;-59
2021/01/05 04:09:28;;;;;;;108.20;27.25;;;128.50;2252.80;;;;;;5053876;28;20348;-58
2021/01/05 04:11:53;;;;;;;122.47;27.77;;;128.60;2252.80;;;;;;5053373;28;20033;-57
2021/01/05 04:14:19;;;;;;;108.07;24.88;;;128.50;2252.80;;;;;;5053448;28;20044;-58
2021/01/05 04:16:47;;;;;;;97.90;25.83;;;128.40;2252.80;;;;;;5055187;28;20463;-58
2021/01/05 04:19:13;;;;;;;94.63;26.75;;;128.40;2252.80;;;;;;5044916;28;20022;-56
2021/01/05 04:21:39;;;;;;;96.50;25.88;;;128.40;2252.80;;;;;;5023846;28;20171;-56
2021/01/05 04:24:05;;;;;;;102.25;26.02;;;128.50;2252.80;;;;;;5041521;28;20105;-56
2021/01/05 04:26:33;;;;;;;103.70;25.20;;;128.50;2252.80;;;;;;5042675;28;20036;-59
2021/01/05 04:28:59;;;;;;;109.88;25.98;;;128.40;2252.80;;;;;;5053535;28;20063;-58
2021/01/05 04:31:25;;;;;;;109.35;27.02;;;128.40;2252.80;;;;;;5048929;28;20056;-56
2021/01/05 04:33:50;;;;;;;92.07;24.70;;;128.40;2252.80;;;;;;5045991;28;20474;-59
2021/01/05 04:36:16;;;;;;;84.05;22.98;;;128.30;2252.80;;;;;;5042125;28;20047;-59
2021/01/05 04:38:41;;;;;;;87.72;24.60;;;128.30;2252.80;;;;;;5049784;28;20466;-56
2021/01/05 04:41:16;;;;;;;88.88;24.35;;;128.20;2252.80;;;;;;5044002;28;20034;-58
2021/01/05 04:43:50;;;;;;;84.43;22.95;;;128.20;2252.80;;;;;;5041374;28;20020;-57
2021/01/05 04:46:19;;;;;;;90.35;24.83;;;128.20;2252.80;;;;;;5041802;28;20142;-57
2021/01/05 04:48:59;;;;;;;88.15;23.77;;;128.20;2252.80;;;;;;5055967;28;20116;-57
2021/01/05 04:51:43;;;;;;;72.03;21.15;;;128.20;2252.80;;;;;;5045359;28;20013;-57
2021/01/05 04:54:34;;;;;;;73.10;23.75;;;128.10;2252.80;;;;;;5047363;28;20478;-58
2021/01/05 04:57:06;;;;;;;77.70;23.33;;;128.00;2252.80;;;;;;5043619;28;20034;-58
2021/01/05 04:59:50;;;;;;;61.80;20.95;;;128.00;2252.80;;;;;;5046531;28;20037;-58
2021/01/05 05:02:28;;;;;;;59.90;19.63;;;128.00;2252.80;;;;;;5027670;28;20348;-56
2021/01/05 05:05:15;;;;;;;74.80;21.73;;;103.30;2227.20;;;;;;5054185;28;20115;-56
2021/01/05 05:07:55;;;;;;;82.60;23.88;;;103.20;2227.20;;;;;;5043021;28;20052;-57
2021/01/05 05:10:38;;;;;;;74.93;23.05;;;103.10;2227.20;;;;;;5047586;28;20442;-56
2021/01/05 05:13:16;;;;;;;64.55;21.33;;;103.20;2227.20;;;;;;5042812;28;20017;-56
2021/01/05 05:15:46;;;;;;;67.13;23.25;;;103.00;2227.20;;;;;;5042967;28;20398;-58
2021/01/05 05:18:32;;;;;;;78.80;27.25;;;103.10;2227.20;;;;;;5042096;28;20410;-57
2021/01/05 05:21:35;;;;;;;72.68;23.00;;;103.10;2227.20;;;;;;5051127;28;20182;-56
2021/01/05 05:24:11;;;;;;;71.05;23.20;;;103.10;2227.20;;;;;;5043426;28;20033;-57
2021/01/05 05:26:39;;;;;;;61.65;20.85;;;103.10;2227.20;;;;;;5046129;28;20080;-56
2021/01/05 05:29:22;;;;;;;67.50;23.02;;;103.10;2227.20;;;;;;5046740;28;20028;-56
2021/01/05 05:31:49;;;;;;;73.53;25.75;;;103.10;2227.20;;;;;;5047130;28;20037;-57
2021/01/05 05:34:25;;;;;;;54.17;21.00;;;103.10;2227.20;;;;;;5043940;28;20481;-57
2021/01/05 05:37:23;;;;;;;74.22;28.83;;;103.10;2227.20;;;;;;5045190;28;20067;-56
2021/01/05 05:40:20;;;;;;;80.55;33.90;;;103.20;2227.20;;;;;;5046085;28;20056;-56
2021/01/05 05:43:26;;;;;;;60.83;24.55;;;103.10;2227.20;;;;;;5046717;28;20049;-57
2021/01/05 05:46:15;;;;;;;104.90;45.45;;;103.00;2227.20;;;;;;5045091;28;20026;-56
2021/01/05 05:48:54;;;;;;;76.68;30.90;;;103.00;2227.20;;;;;;5046297;28;20036;-58
2021/01/05 05:51:37;;;;;;;290.38;112.28;;;103.00;2227.20;;;;;;5046134;28;20025;-56
2021/01/05 05:54:21;;;;;;;91.18;37.53;;;103.00;2227.20;;;;;;5046340;28;20026;-57
2021/01/05 05:56:52;;;;;;;79.93;32.25;;;103.00;2227.20;;;;;;5042007;28;20375;-56
2021/01/05 05:59:27;;;;;;;88.38;37.90;;;102.90;2227.20;;;;;;5044532;28;20064;-59
2021/01/05 06:01:52;;;;;;;55.28;20.95;;;102.90;2227.20;;;;;;5044858;28;20513;-58
2021/01/05 06:04:21;;;;;;;72.47;28.55;;;102.90;2227.20;;;;;;5044762;28;20116;-58
2021/01/05 06:06:47;;;;;;;60.03;23.27;;;102.90;2227.20;;;;;;5045848;28;20474;-58
2021/01/05 06:09:13;;;;;;;74.10;28.27;;;102.80;2227.20;;;;;;5044438;28;20022;-58
2021/01/05 06:11:38;;;;;;;68.00;25.17;;;102.90;2227.20;;;;;;5044533;28;20083;-58
2021/01/05 06:14:05;;;;;;;100.05;40.03;;;102.90;2227.20;;;;;;5045714;28;20036;-58
2021/01/05 06:16:34;;;;;;;61.22;24.52;;;102.90;2227.20;;;;;;5041011;28;20029;-59
2021/01/05 06:19:00;;;;;;;66.43;24.30;;;102.90;2227.20;;;;;;5036060;28;20029;-56
2021/01/05 06:21:25;;;;;;;72.35;27.92;;;102.90;2227.20;;;;;;5041238;28;20039;-58
2021/01/05 06:23:51;;;;;;;78.10;30.70;;;102.90;2227.20;;;;;;5045086;28;20021;-56
2021/01/05 06:26:19;;;;;;;62.05;22.65;;;102.90;2227.20;;;;;;5045169;28;20096;-60
2021/01/05 06:28:46;;;;;;;57.83;22.90;;;102.90;2227.20;;;;;;5046470;28;20520;-59
2021/01/05 06:31:12;;;;;;;79.85;30.38;;;102.90;2227.20;;;;;;5045141;28;20089;-59
2021/01/05 06:33:38;;;;;;;77.25;31.75;;;102.90;2227.20;;;;;;5055826;28;20179;-59
2021/01/05 06:36:04;;;;;;;64.88;25.35;;;102.90;2227.20;;;;;;5054636;28;20025;-59
2021/01/05 06:38:30;;;;;;;54.35;23.05;;;102.90;2227.20;;;;;;5055766;28;20032;-59
2021/01/05 06:40:56;;;;;;;67.82;28.40;;;102.90;2227.20;;;;;;5055674;28;20043;-59
2021/01/05 06:43:22;;;;;;;68.20;27.52;;;103.00;2227.20;;;;;;5055713;28;20099;-58
2021/01/05 06:45:48;;;;;;;120.57;43.55;;;102.90;2227.20;;;;;;5055874;28;20063;-59
2021/01/05 06:48:14;;;;;;;149.05;63.75;;;102.90;2227.20;;;;;;5055326;28;20431;-59
2021/01/05 06:50:39;;;;;;;427.05;190.43;;;103.00;2227.20;;;;;;5055460;28;20112;-57
2021/01/05 06:53:05;;;;;;;203.75;87.75;;;103.00;2227.20;;;;;;5055751;28;20021;-58
2021/01/05 06:55:31;;;;;;;64.28;26.20;;;103.00;2227.20;;;;;;5055522;28;20025;-59
2021/01/05 06:57:57;;;;;;;104.00;42.58;;;103.00;2227.20;;;;;;5055654;28;20064;-56
2021/01/05 07:00:27;;;;;;;72.03;28.30;;;103.00;2227.20;;;;;;5055152;28;20439;-58
2021/01/05 07:02:54;;;;;;;62.17;24.55;;;103.00;2227.20;;;;;;5055397;28;20017;-57
2021/01/05 07:05:20;;;;;;;69.38;28.00;;;103.00;2227.20;;;;;;5054583;28;20033;-57
2021/01/05 07:07:47;;;;;;;96.00;41.60;;;103.10;2227.20;;;;;;5054637;28;20024;-62
2021/01/05 07:10:14;;;;;;;75.10;32.97;;;103.10;2227.20;;;;;;5055078;28;20040;-66
2021/01/05 07:12:40;;;;;;;85.07;35.25;;;103.10;2227.20;;;;;;5054620;28;20109;-62
2021/01/05 07:15:08;;;;;;;85.68;37.85;;;103.20;2227.20;;;;;;5054553;28;20077;-66
2021/01/05 07:17:34;;;;;;;105.68;45.47;;;103.30;2227.20;;;;;;5054124;28;20021;-64
2021/01/05 07:20:00;;;;;;;127.97;57.45;;;128.00;2252.80;;;;;;5054566;28;20356;-69
2021/01/05 07:22:26;;;;;;;99.35;47.75;;;128.00;2252.80;;;;;;5054521;28;20370;-66
2021/01/05 07:24:51;;;;;;;201.80;74.25;;;128.10;2252.80;;;;;;5054533;28;20043;-66
2021/01/05 07:27:17;;;;;;;64.55;28.83;;;128.00;2252.80;;;;;;5054700;28;20025;-66
2021/01/05 07:29:43;;;;;;;70.28;28.58;;;128.00;2252.80;;;;;;5054403;28;20030;-62
2021/01/05 07:32:09;;;;;;;78.95;35.88;;;128.00;2252.80;;;;;;5054666;28;20032;-63
2021/01/05 07:34:37;;;;;;;138.20;66.30;;;128.10;2252.80;;;;;;5054180;28;20442;-65
2021/01/05 07:37:07;;;;;;;74.55;33.35;;;128.20;2252.80;;;;;;5054049;28;20021;-62
2021/01/05 07:39:34;;;;;;;63.45;27.67;;;128.20;2252.80;;;;;;5054193;28;20037;-65
2021/01/05 07:42:20;;;;;;;65.07;31.45;;;128.10;2252.80;;;;;;5051616;28;20036;-62
2021/01/05 07:44:48;;;;;;;70.60;31.35;;;128.00;2252.80;;;;;;5046887;28;20017;-66
2021/01/05 07:47:15;;;;;;;68.97;31.27;;;128.10;2252.80;;;;;;5048668;28;20059;-63
2021/01/05 07:49:42;;;;;;;108.05;52.38;;;128.10;2252.80;;;;;;5053098;28;20040;-65
2021/01/05 07:52:23;;;;;;;81.63;40.25;;;128.10;2252.80;;;;;;5053904;28;20538;-66
2021/01/05 07:54:49;;;;;;;61.00;28.02;;;128.10;2252.80;;;;;;5053740;28;20063;-63
2021/01/05 07:57:16;;;;;;;62.90;28.85;;;128.10;2252.80;;;;;;5053781;28;20085;-62
2021/01/05 07:59:42;;;;;;;56.20;26.05;;;128.10;2252.80;;;;;;5053167;28;20041;-65
2021/01/05 08:02:09;;;;;;;63.85;28.50;;;128.30;2252.80;;;;;;5053539;28;20021;-65
2021/01/05 08:04:36;;;;;;;86.97;41.40;;;128.20;2252.80;;;;;;5053795;28;20090;-66
2021/01/05 08:07:01;;;;;;;87.93;42.67;;;128.10;2252.80;;;;;;5054361;28;20488;-65
2021/01/05 08:09:27;;;;;;;76.80;35.75;;;128.10;2252.80;;;;;;5053293;28;20112;-64
2021/01/05 08:11:53;;;;;;;137.55;69.07;;;128.00;2252.80;;;;;;5053691;28;20037;-64
2021/01/05 08:14:18;;;;;;;92.38;43.65;;;103.30;2227.20;;;;;;5052943;28;20406;-62
2021/01/05 08:16:49;;;;;;;76.13;34.72;;;103.30;2227.20;;;;;;5053632;28;20040;-60
2021/01/05 08:19:14;;;;;;;111.88;48.20;;;128.00;2252.80;;;;;;5049398;28;20415;-62
2021/01/05 08:21:40;;;;;;;104.30;45.50;;;128.00;2252.80;;;;;;5052910;28;20098;-64
2021/01/05 08:24:06;;;;;;;91.78;42.88;;;128.10;2252.80;;;;;;5053094;28;20049;-66
2021/01/05 08:26:32;;;;;;;113.65;57.58;;;128.10;2252.80;;;;;;5053085;28;20462;-61
2021/01/05 08:28:58;;;;;;;74.03;35.08;;;128.20;2252.80;;;;;;5053291;28;20024;-58
2021/01/05 08:31:34;;;;;;;63.80;31.30;;;128.20;2252.80;;;;;;5053218;28;20029;-63
2021/01/05 08:34:00;;;;;;;76.40;38.22;;;128.20;2252.80;;;;;;5053047;28;20135;-62
2021/01/05 08:36:28;;;;;;;84.43;43.08;;;128.20;2252.80;;;;;;5049036;28;20041;-62
2021/01/05 08:38:54;;;;;;;176.05;83.57;;;128.30;2252.80;;;;;;5053885;28;20021;-61
2021/01/05 08:41:20;;;;;;;101.75;48.60;;;128.30;2252.80;;;;;;5053185;28;20094;-64
2021/01/05 08:43:45;;;;;;;106.70;54.40;;;128.30;2252.80;;;;;;5052845;28;20497;-62
2021/01/05 08:46:27;;;;;;;79.13;41.70;;;128.30;2252.80;;;;;;5053107;28;20040;-68
2021/01/05 08:48:53;;;;;;;61.88;32.25;;;128.30;2252.80;;;;;;5052716;28;20108;-63
2021/01/05 08:51:20;;;;;;;76.70;40.30;;;128.30;2252.80;;;;;;5047797;28;20058;-64
2021/01/05 08:53:47;;;;;;;80.97;45.47;;;128.50;2252.80;;;;;;5045199;28;20021;-64
2021/01/05 08:56:19;;;;;;;69.35;35.53;;;128.50;2252.80;;;;;;5047979;28;20040;-65
2021/01/05 08:58:45;;;;;;;86.22;45.25;;;128.60;2252.80;;;;;;5046609;28;20056;-63
2021/01/05 09:01:11;;;;;;;58.78;31.30;;;128.40;2252.80;;;;;;5051605;28;20049;-60
2021/01/05 09:03:38;;;;;;;56.28;28.67;;;128.50;2252.80;;;;;;5046117;28;20017;-65
2021/01/05 09:06:04;;;;;;;59.72;30.52;;;128.50;2252.80;;;;;;5050260;28;20029;-57
2021/01/05 09:08:30;;;;;;;64.32;33.10;;;128.60;2252.80;;;;;;5045526;28;20394;-65
2021/01/05 09:11:01;;;;;;;88.60;41.83;;;128.60;2252.80;;;;;;5032811;28;20025;-59
2021/01/05 09:13:27;;;;;;;94.57;46.08;;;128.70;2252.80;;;;;;5047022;28;20029;-67
2021/01/05 09:15:53;;;;;;;77.38;38.90;;;128.80;2252.80;;;;;;5051530;28;20082;-68
2021/01/05 09:18:23;;;;;;;74.38;41.13;;;128.90;2252.80;;;;;;5052700;28;20036;-66
2021/01/05 09:20:51;;;;;;;97.93;52.25;;;153.70;2252.80;;;;;;5048359;28;20048;-67
2021/01/05 09:23:22;;;;;;;88.70;45.90;;;153.60;2252.80;;;;;;5049461;28;20026;-63
2021/01/05 09:25:53;;;;;;;84.05;45.50;;;128.90;2252.80;;;;;;5048198;28;20463;-58
2021/01/05 09:28:20;;;;;;;72.97;39.85;;;128.80;2252.80;;;;;;5051847;28;20034;-65
2021/01/05 09:30:49;;;;;;;77.75;40.00;;;128.90;2252.80;;;;;;5050528;28;20572;-67
2021/01/05 09:33:19;;;;;;;40.25;21.88;;;128.90;2252.80;;;;;;5048902;28;20033;-65
2021/01/05 09:35:47;;;;;;;41.90;22.75;;;128.80;2252.80;;;;;;5052604;28;20166;-66
2021/01/05 09:38:14;;;;;;;47.00;25.42;;;128.90;2252.80;;;;;;5048485;28;20057;-63
2021/01/05 09:40:40;;;;;;;57.08;31.33;;;128.90;2252.80;;;;;;5046381;28;20029;-64
2021/01/05 09:43:09;;;;;;;56.83;28.27;;;128.90;2252.80;;;;;;5044322;28;20044;-62
2021/01/05 09:45:36;;;;;;;54.05;27.30;;;128.80;2252.80;;;;;;5032116;28;20459;-62
2021/01/05 09:48:10;;;;;;;49.17;25.52;;;128.70;2252.80;;;;;;5045665;28;20028;-64
2021/01/05 09:50:39;;;;;;;42.50;22.90;;;128.90;2252.80;;;;;;5044799;28;20022;-57
2021/01/05 09:53:05;;;;;;;36.03;19.60;;;153.60;2252.80;;;;;;5050314;28;20025;-60
2021/01/05 09:55:32;;;;;;;33.63;20.10;;;153.70;2252.80;;;;;;5052408;28;20045;-62
2021/01/05 09:57:58;;;;;;;42.08;24.52;;;153.70;2252.80;;;;;;5048765;28;20458;-58
2021/01/05 10:00:24;;;;;;;49.80;26.02;;;153.80;2252.80;;;;;;5047155;28;20128;-62
2021/01/05 10:02:51;;;;;;;40.60;21.25;;;153.70;2252.80;;;;;;5046703;28;20379;-64
2021/01/05 10:05:17;;;;;;;60.88;28.13;;;153.80;2252.80;;;;;;5055862;28;20095;-61
2021/01/05 10:07:44;;;;;;;55.25;27.33;;;153.80;2252.80;;;;;;5055702;28;20374;-64
2021/01/05 10:10:25;;;;;;;42.47;22.90;;;153.80;2252.80;;;;;;5055914;28;20385;-58
2021/01/05 10:12:51;;;;;;;38.97;23.17;;;153.90;2252.80;;;;;;5055491;28;20036;-64
2021/01/05 10:15:19;;;;;;;39.40;22.88;;;154.00;2252.80;;;;;;5055570;28;20072;-60
2021/01/05 10:17:45;;;;;;;69.60;30.13;;;154.00;2252.80;;;;;;5055903;28;20029;-63
2021/01/05 10:20:12;;;;;;;88.75;36.10;;;153.90;2252.80;;;;;;5055918;28;20386;-64
2021/01/05 10:22:39;;;;;;;79.65;38.80;;;153.90;2252.80;;;;;;5054391;28;20037;-60
2021/01/05 10:25:08;;;;;;;83.95;45.92;;;153.90;2252.80;;;;;;5055716;28;20063;-59
2021/01/05 10:27:33;;;;;;;114.13;65.03;;;153.90;2252.80;;;;;;5055475;28;20029;-57
2021/01/05 10:29:59;;;;;;;56.78;32.00;;;153.60;2252.80;;;;;;5055483;28;20033;-61
2021/01/05 10:32:25;;;;;;;59.35;37.10;;;153.60;2252.80;;;;;;5055506;28;20477;-63
2021/01/05 10:34:51;;;;;;;49.40;30.35;;;128.80;2252.80;;;;;;5055191;28;20032;-59
2021/01/05 10:37:16;;;;;;;48.45;26.67;;;128.80;2252.80;;;;;;5055148;28;20186;-59
2021/01/05 10:39:42;;;;;;;57.40;32.95;;;128.90;2252.80;;;;;;5055272;28;20033;-57
2021/01/05 10:42:08;;;;;;;58.53;32.60;;;153.60;2252.80;;;;;;5055308;28;20056;-65
2021/01/05 10:44:34;;;;;;;47.88;28.00;;;153.70;2252.80;;;;;;5054833;28;20167;-58
2021/01/05 10:47:03;;;;;;;61.45;33.22;;;153.80;2252.80;;;;;;5053119;28;20029;-60
2021/01/05 10:49:29;;;;;;;69.47;37.08;;;153.90;2252.80;;;;;;5050088;28;20090;-60
2021/01/05 10:51:57;;;;;;;46.00;26.52;;;154.00;2252.80;;;;;;5045810;28;20025;-62
2021/01/05 10:54:26;;;;;;;94.75;48.95;;;154.00;2252.80;;;;;;5042123;28;20048;-62
2021/01/05 10:57:04;;;;;;;52.83;28.10;;;154.00;2252.80;;;;;;5036267;28;20116;-60
2021/01/05 10:59:30;;;;;;;53.30;30.88;;;154.00;2252.80;;;;;;5048044;28;20035;-59
2021/01/05 11:01:57;;;;;;;111.75;65.93;;;153.90;2252.80;;;;;;5042542;28;20475;-61
2021/01/05 11:04:24;;;;;;;65.88;40.42;;;153.90;2252.80;;;;;;5048544;28;20099;-63
2021/01/05 11:06:58;;;;;;;49.50;29.15;;;153.80;2252.80;;;;;;5054393;28;20115;-58
2021/01/05 11:09:25;;;;;;;41.65;24.88;;;154.00;2252.80;;;;;;5054088;28;20037;-63
2021/01/05 11:11:59;;;;;;;40.92;24.17;;;154.00;2252.80;;;;;;5054720;28;20060;-61
2021/01/05 11:14:25;;;;;;;56.72;31.85;;;153.90;2252.80;;;;;;5062071;28;20117;-61
2021/01/05 11:16:51;;;;;;;56.97;29.98;;;154.00;2252.80;;;;;;5045197;28;20021;-63
2021/01/05 11:19:16;;;;;;;48.53;25.33;;;154.10;2252.80;;;;;;5057374;28;20028;-66
2021/01/05 11:21:50;;;;;;;44.35;23.85;;;154.20;2252.80;;;;;;5062178;28;20120;-61
2021/01/05 11:24:17;;;;;;;57.90;31.25;;;154.20;2252.80;;;;;;5054464;28;20032;-61
2021/01/05 11:26:42;;;;;;;36.35;19.98;;;154.00;2252.80;;;;;;5054392;28;20092;-63
2021/01/05 11:29:08;;;;;;;42.63;23.17;;;154.20;2252.80;;;;;;5053814;28;20561;-59
2021/01/05 11:31:34;;;;;;;156.00;70.63;;;154.30;2252.80;;;;;;5052302;28;20080;-59
2021/01/05 11:33:59;;;;;;;308.90;133.55;;;154.20;2252.80;;;;;;5042409;28;20037;-61
2021/01/05 11:36:27;;;;;;;471.35;232.98;;;154.20;2252.80;;;;;;5072238;28;20104;-61
2021/01/05 11:38:54;;;;;;;84.10;47.33;;;154.50;2252.80;;;;;;5062460;28;20070;-62
2021/01/05 11:41:25;;;;;;;225.25;113.22;;;154.50;2252.80;;;;;;5064917;28;20033;-65
2021/01/05 11:43:51;;;;;;;63.97;32.90;;;179.30;2227.20;;;;;;5063848;28;20024;-61
2021/01/05 11:46:17;;;;;;;135.25;70.97;;;179.20;2227.20;;;;;;5054149;28;20063;-60
2021/01/05 11:48:42;;;;;;;128.07;62.85;;;179.20;2201.60;;;;;;5053877;28;20067;-63
2021/01/05 11:51:08;;;;;;;124.47;61.50;;;154.50;2252.80;;;;;;5054156;28;20067;-61
2021/01/05 11:53:34;;;;;;;99.63;47.35;;;179.30;2201.60;;;;;;5035220;28;20021;-62
2021/01/05 11:55:59;;;;;;;123.05;58.47;;;179.20;2201.60;;;;;;5053595;28;20032;-60
2021/01/05 11:58:25;;;;;;;67.65;33.65;;;154.50;2227.20;;;;;;5053592;28;20373;-59
2021/01/05 12:00:51;;;;;;;77.15;37.22;;;154.50;2227.20;;;;;;5064629;28;20041;-60
2021/01/05 12:03:16;;;;;;;68.28;34.88;;;154.30;2252.80;;;;;;5051880;28;20037;-61
2021/01/05 12:05:43;;;;;;;119.30;49.10;;;154.30;2252.80;;;;;;5054087;28;20036;-62
2021/01/05 12:08:09;;;;;;;48.95;26.15;;;154.30;2252.80;;;;;;5062286;28;20039;-60
2021/01/05 12:10:34;;;;;;;85.85;40.58;;;154.40;2252.80;;;;;;5040560;28;20392;-60